createdAt,value
2022-08-05T00:01:36.204Z,7.38
2022-08-05T00:04:18.176Z,6.35
2022-08-05T00:06:51.721Z,8.40
2022-08-05T00:09:20.337Z,6.97
2022-08-05T00:11:55.364Z,6.38
2022-08-05T00:14:27.490Z,5.57
2022-08-05T00:16:57.937Z,6.15
2022-08-05T00:19:33.789Z,7.78
2022-08-05T00:22:12.123Z,5.40
2022-08-05T00:24:42.407Z,7.05
2022-08-05T00:27:28.552Z,4.47
2022-08-05T00:29:58.862Z,6.43
2022-08-05T00:32:31.332Z,5.38
2022-08-05T00:35:06.664Z,7.43
2022-08-05T00:37:52.860Z,6.05
2022-08-05T00:40:28.437Z,7.05
2022-08-05T00:42:58.327Z,7.57
2022-08-05T00:45:38.675Z,7.85
2022-08-05T00:48:08.219Z,7.10
2022-08-05T00:50:41.879Z,6.70
2022-08-05T00:54:01.027Z,10.20
2022-08-05T00:56:00.523Z,6.93
2022-08-05T00:58:28.753Z,6.70
2022-08-05T01:00:56.980Z,5.28
2022-08-05T01:03:30.857Z,7.82
2022-08-05T01:06:03.946Z,5.95
2022-08-05T01:08:43.026Z,9.02
2022-08-05T01:11:22.191Z,6.53
2022-08-05T01:14:08.463Z,6.55
2022-08-05T01:16:41.716Z,8.05
2022-08-05T01:19:56.343Z,5.68
2022-08-05T01:22:24.338Z,5.82
2022-08-05T01:25:13.663Z,7.82
2022-08-05T01:28:07.428Z,9.30
2022-08-05T01:30:39.616Z,6.32
2022-08-05T01:33:20.552Z,9.20
2022-08-05T01:35:57.465Z,7.47
2022-08-05T01:38:29.418Z,6.90
2022-08-05T01:41:00.063Z,13.93
2022-08-05T01:43:31.714Z,7.53
2022-08-05T01:46:07.283Z,9.05
2022-08-05T01:48:45.616Z,7.72
2022-08-05T01:51:18.500Z,8.05
2022-08-05T01:53:57.078Z,6.68
2022-08-05T01:58:11.158Z,7.70
2022-08-05T01:59:22.097Z,6.70
2022-08-05T02:01:51.525Z,7.40
2022-08-05T02:04:24.256Z,7.28
2022-08-05T02:06:53.796Z,7.57
2022-08-05T02:09:22.040Z,6.30
2022-08-05T02:12:02.837Z,6.75
2022-08-05T02:14:34.934Z,6.07
2022-08-05T02:17:08.230Z,7.38
2022-08-05T02:19:50.089Z,7.88
2022-08-05T02:22:26.721Z,7.22
2022-08-05T02:25:00.059Z,8.48
2022-08-05T02:27:30.242Z,8.43
2022-08-05T02:30:17.998Z,6.03
2022-08-05T02:32:49.322Z,5.55
2022-08-05T02:35:27.648Z,6.85
2022-08-05T02:38:00.101Z,7.03
2022-08-05T02:40:28.396Z,6.55
2022-08-05T02:42:57.397Z,6.65
2022-08-05T02:45:28.763Z,4.45
2022-08-05T02:48:17.390Z,6.80
2022-08-05T02:50:47.438Z,6.47
2022-08-05T02:53:19.136Z,8.05
2022-08-05T02:55:54.885Z,6.35
2022-08-05T02:58:30.004Z,7.50
2022-08-05T03:01:02.852Z,7.13
2022-08-05T03:03:34.226Z,5.82
2022-08-05T03:06:53.819Z,6.55
2022-08-05T03:09:09.022Z,7.15
2022-08-05T03:11:55.239Z,7.45
2022-08-05T03:14:26.822Z,7.40
2022-08-05T03:16:56.301Z,7.95
2022-08-05T03:19:33.883Z,7.75
2022-08-05T03:22:05.083Z,6.97
2022-08-05T03:24:47.001Z,7.63
2022-08-05T03:27:17.452Z,5.95
2022-08-05T03:30:08.777Z,6.22
2022-08-05T03:32:34.778Z,6.13
2022-08-05T03:35:04.613Z,6.38
2022-08-05T03:37:46.325Z,6.63
2022-08-05T03:40:31.303Z,6.53
2022-08-05T03:43:01.470Z,8.50
2022-08-05T03:45:57.129Z,8.00
2022-08-05T03:48:29.166Z,8.38
2022-08-05T03:52:34.691Z,7.95
2022-08-05T03:55:51.173Z,8.80
2022-08-05T03:56:43.279Z,8.77
2022-08-05T03:59:20.372Z,9.18
2022-08-05T04:01:51.717Z,6.00
2022-08-05T04:04:22.576Z,5.88
2022-08-05T04:06:55.135Z,6.30
2022-08-05T04:09:26.319Z,7.47
2022-08-05T04:11:56.823Z,6.57
2022-08-05T04:14:30.102Z,7.35
2022-08-05T04:17:00.523Z,7.43
2022-08-05T04:19:31.158Z,7.63
2022-08-05T04:22:09.576Z,6.00
2022-08-05T04:24:44.025Z,6.03
2022-08-05T04:27:15.625Z,6.10
2022-08-05T04:29:43.958Z,7.40
2022-08-05T04:32:13.645Z,7.35
2022-08-05T04:34:48.519Z,13.70
2022-08-05T04:37:16.668Z,7.28
2022-08-05T04:39:44.830Z,9.98
2022-08-05T04:42:21.295Z,8.45
2022-08-05T04:44:53.497Z,10.70
2022-08-05T04:47:21.717Z,11.05
2022-08-05T04:50:02.895Z,17.98
2022-08-05T04:52:39.331Z,25.23
2022-08-05T04:55:15.048Z,92.18
2022-08-05T04:57:47.771Z,166.70
2022-08-05T05:00:23.278Z,187.00
2022-08-05T05:02:52.309Z,193.18
2022-08-05T05:05:28.714Z,160.88
2022-08-05T05:08:01.445Z,140.95
2022-08-05T05:10:30.385Z,51.35
2022-08-05T05:16:07.254Z,13.98
2022-08-05T05:18:35.133Z,9.63
2022-08-05T05:21:05.593Z,9.93
2022-08-05T05:23:39.452Z,8.13
2022-08-05T05:26:28.071Z,7.53
2022-08-05T05:28:56.097Z,7.50
2022-08-05T05:31:25.083Z,8.50
2022-08-05T05:33:59.157Z,10.15
2022-08-05T05:36:29.714Z,9.60
2022-08-05T05:38:58.170Z,8.30
2022-08-05T05:41:40.343Z,8.05
2022-08-05T05:44:35.590Z,7.82
2022-08-05T05:46:57.969Z,7.70
2022-08-05T05:49:26.190Z,9.70
2022-08-05T05:51:55.462Z,10.00
2022-08-05T05:54:50.289Z,8.27
2022-08-05T05:57:13.805Z,9.95
2022-08-05T05:59:46.812Z,8.38
2022-08-05T06:02:16.719Z,8.25
2022-08-05T06:04:49.140Z,9.07
2022-08-05T06:07:22.533Z,6.97
2022-08-05T06:10:10.336Z,8.98
2022-08-05T06:12:42.081Z,8.90
2022-08-05T06:15:23.665Z,7.97
2022-08-05T06:17:52.679Z,7.80
2022-08-05T06:20:21.914Z,8.15
2022-08-05T06:22:51.267Z,10.30
2022-08-05T06:25:25.028Z,7.47
2022-08-05T06:28:11.225Z,8.52
2022-08-05T06:30:49.151Z,8.63
2022-08-05T06:33:19.190Z,16.10
2022-08-05T06:36:03.731Z,10.73
2022-08-05T06:38:37.152Z,7.68
2022-08-05T06:41:07.883Z,6.78
2022-08-05T06:43:58.622Z,8.02
2022-08-05T06:46:30.045Z,9.80
2022-08-05T06:48:58.746Z,9.10
2022-08-05T06:51:30.255Z,8.23
2022-08-05T06:54:01.837Z,8.20
2022-08-05T06:56:30.139Z,7.80
2022-08-05T06:59:01.700Z,8.63
2022-08-05T07:01:32.671Z,8.55
2022-08-05T07:04:01.416Z,8.35
2022-08-05T07:06:30.320Z,9.38
2022-08-05T07:09:04.199Z,8.73
2022-08-05T07:11:33.086Z,9.07
2022-08-05T07:14:28.972Z,7.70
2022-08-05T07:18:01.837Z,7.30
2022-08-05T07:22:41.995Z,8.85
2022-08-05T07:25:23.585Z,7.55
2022-08-05T07:28:05.750Z,7.63
2022-08-05T07:30:39.159Z,6.55
2022-08-05T07:33:10.396Z,12.20
2022-08-05T07:36:04.657Z,9.43
2022-08-05T07:38:34.399Z,7.28
2022-08-05T07:42:07.128Z,8.60
2022-08-05T07:43:56.083Z,8.40
2022-08-05T07:46:26.197Z,9.32
2022-08-05T07:49:03.874Z,7.10
2022-08-05T07:51:41.130Z,10.38
2022-08-05T07:54:18.844Z,6.68
2022-08-05T07:57:02.057Z,9.13
2022-08-05T07:59:39.990Z,8.30
2022-08-05T08:02:10.662Z,6.22
2022-08-05T08:04:49.462Z,11.10
2022-08-05T08:07:18.390Z,11.52
2022-08-05T08:09:52.560Z,8.88
2022-08-05T08:12:37.518Z,7.97
2022-08-05T08:15:15.341Z,9.25
2022-08-05T08:17:49.654Z,7.70
2022-08-05T08:20:59.819Z,10.00
2022-08-05T08:23:11.825Z,15.50
2022-08-05T08:25:59.897Z,10.82
2022-08-05T08:28:37.321Z,12.27
2022-08-05T08:31:19.373Z,8.10
2022-08-05T08:33:51.601Z,8.65
2022-08-05T08:36:39.240Z,8.77
2022-08-05T08:39:15.013Z,10.40
2022-08-05T08:41:50.837Z,9.48
2022-08-05T08:45:20.946Z,12.63
2022-08-05T08:47:47.081Z,7.93
2022-08-05T08:50:31.930Z,7.30
2022-08-05T08:53:00.626Z,11.63
2022-08-05T08:56:02.444Z,7.07
2022-08-05T08:58:17.832Z,10.13
2022-08-05T09:00:55.505Z,8.77
2022-08-05T09:03:23.540Z,12.80
2022-08-05T09:06:08.935Z,6.82
2022-08-05T09:08:40.591Z,10.00
2022-08-05T09:11:12.087Z,9.23
2022-08-05T09:14:00.846Z,7.45
2022-08-05T09:16:32.224Z,8.88
2022-08-05T09:19:00.092Z,12.02
2022-08-05T09:22:22.475Z,10.30
2022-08-05T09:24:17.421Z,11.75
2022-08-05T09:26:48.633Z,11.00
2022-08-05T09:29:19.933Z,9.35
2022-08-05T09:34:50.968Z,9.40
2022-08-05T09:38:12.310Z,8.57
2022-08-05T09:40:08.871Z,7.95
2022-08-05T09:42:48.285Z,6.65
2022-08-05T09:45:17.376Z,8.52
2022-08-05T09:47:55.598Z,9.45
2022-08-05T09:50:38.830Z,7.28
2022-08-05T09:53:22.902Z,11.60
2022-08-05T09:56:03.929Z,9.57
2022-08-05T09:58:32.893Z,9.93
2022-08-05T10:01:02.294Z,10.10
2022-08-05T10:03:59.078Z,8.85
2022-08-05T10:06:29.054Z,12.48
2022-08-05T10:09:27.568Z,11.10
2022-08-05T10:11:56.406Z,10.55
2022-08-05T10:14:28.426Z,10.43
2022-08-05T10:17:14.115Z,12.65
2022-08-05T10:20:04.058Z,8.82
2022-08-05T10:22:48.659Z,12.45
2022-08-05T10:25:18.901Z,10.38
2022-08-05T10:28:16.789Z,13.52
2022-08-05T10:31:20.376Z,12.00
2022-08-05T10:33:29.033Z,14.48
2022-08-05T10:35:59.847Z,11.57
2022-08-05T10:38:33.295Z,10.05
2022-08-05T10:41:07.545Z,14.75
2022-08-05T10:43:43.902Z,19.33
2022-08-05T10:46:13.436Z,17.55
2022-08-05T10:48:57.055Z,19.20
2022-08-05T10:51:29.035Z,18.05
2022-08-05T10:54:01.774Z,18.30
2022-08-05T10:56:45.868Z,13.10
2022-08-05T11:00:04.080Z,12.65
2022-08-05T11:02:14.244Z,16.65
2022-08-05T11:04:58.914Z,18.88
2022-08-05T11:07:33.003Z,12.27
2022-08-05T11:10:27.772Z,11.02
2022-08-05T11:12:57.558Z,12.15
2022-08-05T11:16:00.303Z,12.82
2022-08-05T11:18:29.725Z,13.50
2022-08-05T11:20:59.083Z,15.95
2022-08-05T11:24:03.847Z,13.70
2022-08-05T11:26:32.948Z,16.23
2022-08-05T11:29:11.761Z,13.63
2022-08-05T11:31:57.836Z,12.20
2022-08-05T11:34:51.421Z,14.65
2022-08-05T11:38:28.946Z,11.50
2022-08-05T11:41:13.904Z,10.10
2022-08-05T11:44:05.215Z,14.25
2022-08-05T11:46:36.355Z,14.05
2022-08-05T11:49:07.997Z,13.48
2022-08-05T11:51:44.224Z,18.60
2022-08-05T11:54:34.007Z,16.90
2022-08-05T11:57:07.596Z,16.33
2022-08-05T11:59:53.283Z,21.30
2022-08-05T12:02:31.926Z,16.20
2022-08-05T12:05:07.728Z,11.60
2022-08-05T12:08:03.304Z,12.07
2022-08-05T12:10:38.672Z,14.38
2022-08-05T12:13:13.954Z,29.02
2022-08-05T12:15:49.854Z,11.65
2022-08-05T12:18:24.296Z,17.33
2022-08-05T12:20:52.578Z,14.63
2022-08-05T12:23:20.395Z,19.58
2022-08-05T12:25:56.599Z,14.38
2022-08-05T12:28:32.399Z,14.55
2022-08-05T12:31:02.049Z,13.55
2022-08-05T12:33:37.080Z,13.95
2022-08-05T12:36:08.972Z,14.13
2022-08-05T12:38:38.097Z,13.43
2022-08-05T12:41:13.322Z,13.77
2022-08-05T12:43:53.660Z,13.90
2022-08-05T12:46:28.831Z,14.38
2022-08-05T12:48:58.958Z,12.00
2022-08-05T12:52:12.789Z,11.40
2022-08-05T12:54:23.380Z,11.98
2022-08-05T12:56:53.451Z,13.60
2022-08-05T12:59:46.769Z,14.35
2022-08-05T13:02:13.021Z,13.07
2022-08-05T13:04:52.585Z,14.88
2022-08-05T13:07:56.121Z,12.82
2022-08-05T13:10:13.005Z,17.75
2022-08-05T13:12:42.702Z,15.93
2022-08-05T13:15:24.426Z,17.67
2022-08-05T13:18:05.424Z,18.33
2022-08-05T13:20:40.318Z,15.05
2022-08-05T13:23:08.541Z,29.00
2022-08-05T13:25:52.327Z,19.17
2022-08-05T13:28:24.229Z,17.95
2022-08-05T13:30:53.325Z,16.33
2022-08-05T13:34:24.571Z,23.65
2022-08-05T13:36:12.938Z,17.60
2022-08-05T13:38:43.172Z,13.70
2022-08-05T13:41:13.620Z,14.27
2022-08-05T13:43:54.926Z,14.00
2022-08-05T13:49:14.099Z,16.25
2022-08-05T13:51:46.629Z,20.15
2022-08-05T13:54:16.103Z,19.08
2022-08-05T13:56:51.656Z,22.10
2022-08-05T13:59:24.429Z,26.15
2022-08-05T14:01:57.573Z,23.20
2022-08-05T14:04:49.490Z,23.63
2022-08-05T14:07:25.689Z,18.48
2022-08-05T14:10:08.368Z,18.05
2022-08-05T14:12:36.934Z,17.73
2022-08-05T14:15:05.998Z,21.10
2022-08-05T14:17:54.970Z,26.77
2022-08-05T14:20:27.631Z,24.60
2022-08-05T14:22:55.946Z,31.05
2022-08-05T14:25:28.211Z,30.30
2022-08-05T14:27:56.503Z,36.17
2022-08-05T14:30:27.809Z,33.08
2022-08-05T14:32:56.875Z,25.20
2022-08-05T14:35:50.145Z,25.98
2022-08-05T14:38:31.935Z,33.97
2022-08-05T14:41:01.556Z,30.40
2022-08-05T14:44:01.473Z,22.00
2022-08-05T14:46:21.672Z,19.15
2022-08-05T14:48:50.249Z,22.55
2022-08-05T14:51:19.663Z,22.85
2022-08-05T14:54:26.768Z,18.65
2022-08-05T14:56:38.176Z,22.50
2022-08-05T14:59:12.676Z,22.42
2022-08-05T15:01:47.609Z,24.88
2022-08-05T15:04:17.296Z,21.70
2022-08-05T15:06:49.106Z,20.75
2022-08-05T15:09:51.198Z,21.40
2022-08-05T15:12:06.941Z,24.35
2022-08-05T15:14:48.157Z,21.17
2022-08-05T15:17:44.503Z,20.80
2022-08-05T15:20:09.779Z,19.20
2022-08-05T15:22:46.504Z,19.80
2022-08-05T15:25:41.285Z,28.20
2022-08-05T15:28:13.223Z,28.30
2022-08-05T15:30:43.255Z,23.45
2022-08-05T15:33:11.826Z,31.88
2022-08-05T15:35:45.526Z,23.27
2022-08-05T15:38:34.062Z,24.63
2022-08-05T15:41:22.412Z,22.38
2022-08-05T15:43:52.473Z,25.48
2022-08-05T15:46:25.034Z,21.75
2022-08-05T15:48:58.614Z,25.90
2022-08-05T15:52:03.983Z,28.90
2022-08-05T15:54:19.010Z,20.80
2022-08-05T15:56:47.024Z,26.63
2022-08-05T15:59:21.885Z,24.70
2022-08-05T16:01:52.609Z,29.20
2022-08-05T16:04:20.959Z,38.80
2022-08-05T16:06:53.899Z,42.17
2022-08-05T16:09:25.694Z,44.95
2022-08-05T16:11:54.176Z,21.98
2022-08-05T16:14:22.544Z,30.30
2022-08-05T16:16:51.269Z,23.67
2022-08-05T16:20:03.621Z,31.58
2022-08-05T16:22:10.605Z,23.38
2022-08-05T16:24:51.030Z,27.08
2022-08-05T16:27:47.312Z,29.58
2022-08-05T16:30:23.271Z,24.95
2022-08-05T16:32:53.897Z,31.60
2022-08-05T16:35:28.286Z,34.55
2022-08-05T16:38:14.955Z,28.02
2022-08-05T16:40:55.474Z,32.05
2022-08-05T16:43:28.671Z,34.03
2022-08-05T16:46:04.153Z,37.58
2022-08-05T16:48:40.529Z,25.27
2022-08-05T16:51:09.966Z,22.80
2022-08-05T16:54:03.262Z,40.67
2022-08-05T16:56:33.839Z,54.58
2022-08-05T16:59:08.003Z,57.13
2022-08-05T17:01:54.541Z,51.80
2022-08-05T17:04:27.804Z,50.20
2022-08-05T17:07:00.346Z,40.88
2022-08-05T17:09:29.606Z,33.08
2022-08-05T17:12:01.413Z,30.52
2022-08-05T17:14:37.022Z,27.55
2022-08-05T17:17:14.574Z,35.33
2022-08-05T17:19:45.639Z,37.33
2022-08-05T17:22:24.892Z,42.45
2022-08-05T17:24:57.781Z,52.35
2022-08-05T17:27:33.664Z,57.40
2022-08-05T17:30:03.221Z,41.03
2022-08-05T17:32:32.158Z,41.58
2022-08-05T17:35:01.768Z,41.55
2022-08-05T17:37:41.844Z,43.40
2022-08-05T17:40:15.427Z,47.88
2022-08-05T17:42:51.311Z,36.50
2022-08-05T17:45:23.058Z,33.15
2022-08-05T17:47:54.841Z,24.00
2022-08-05T17:50:28.694Z,23.67
2022-08-05T17:52:59.421Z,23.52
2022-08-05T17:55:37.317Z,23.33
2022-08-05T17:58:12.427Z,31.65
2022-08-05T18:00:44.997Z,31.23
2022-08-05T18:03:39.211Z,37.22
2022-08-05T18:06:12.332Z,26.38
2022-08-05T18:08:44.518Z,39.28
2022-08-05T18:11:24.165Z,23.67
2022-08-05T18:14:04.352Z,29.90
2022-08-05T18:16:35.088Z,38.13
2022-08-05T18:19:22.823Z,38.72
2022-08-05T18:22:08.265Z,35.88
2022-08-05T18:24:39.491Z,33.55
2022-08-05T18:27:12.381Z,39.42
2022-08-05T18:29:53.620Z,47.70
2022-08-05T18:32:27.815Z,34.20
2022-08-05T18:34:57.703Z,38.53
2022-08-05T18:37:34.038Z,23.23
2022-08-05T18:40:34.302Z,25.63
2022-08-05T18:42:56.748Z,39.75
2022-08-05T18:45:41.875Z,38.75
2022-08-05T18:48:11.505Z,38.40
2022-08-05T18:50:57.278Z,37.53
2022-08-05T18:53:34.743Z,34.90
2022-08-05T18:56:12.451Z,34.95
2022-08-05T18:58:42.954Z,30.17
2022-08-05T19:01:18.045Z,26.27
2022-08-05T19:03:55.190Z,26.15
2022-08-05T19:06:34.223Z,27.63
2022-08-05T19:09:05.299Z,31.83
2022-08-05T19:11:59.280Z,39.92
2022-08-05T19:14:53.465Z,42.45
2022-08-05T19:17:12.879Z,43.38
2022-08-05T19:19:44.066Z,42.35
2022-08-05T19:22:17.373Z,41.58
2022-08-05T19:24:55.926Z,34.28
2022-08-05T19:27:30.300Z,30.10
2022-08-05T19:29:58.501Z,34.45
2022-08-05T19:32:28.140Z,32.35
2022-08-05T19:34:56.805Z,34.75
2022-08-05T19:37:29.913Z,32.53
2022-08-05T19:40:14.872Z,29.75
2022-08-05T19:42:43.013Z,31.67
2022-08-05T19:45:33.133Z,24.95
2022-08-05T19:48:06.682Z,28.15
2022-08-05T19:50:35.037Z,25.83
2022-08-05T19:53:10.656Z,31.30
2022-08-05T19:56:29.878Z,21.95
2022-08-05T21:37:13.061Z,13.13
2022-08-05T21:39:50.742Z,21.80
2022-08-05T21:42:41.450Z,11.70
2022-08-05T21:46:01.648Z,13.27
2022-08-05T21:48:09.818Z,12.98
2022-08-05T21:53:47.108Z,12.45
2022-08-05T21:57:32.582Z,12.38
2022-08-05T22:00:29.004Z,16.27
2022-08-05T22:03:20.653Z,14.15
2022-08-05T22:06:12.063Z,11.73
2022-08-05T22:09:14.035Z,16.02
2022-08-05T22:11:53.693Z,10.05
2022-08-05T22:24:01.694Z,10.98
2022-08-05T22:26:40.724Z,12.38
2022-08-05T22:29:08.871Z,7.43
2022-08-05T22:31:44.821Z,8.25
2022-08-05T22:34:25.522Z,9.43
2022-08-05T22:36:58.494Z,9.60
2022-08-05T22:39:32.735Z,9.60
2022-08-05T22:42:11.016Z,8.48
2022-08-05T22:44:42.665Z,9.13
2022-08-05T22:47:29.061Z,10.68
2022-08-05T22:50:19.302Z,12.13
2022-08-05T22:52:47.697Z,11.10
2022-08-05T22:55:19.590Z,13.52
2022-08-05T22:57:51.348Z,11.25
2022-08-05T23:00:21.585Z,8.55
2022-08-05T23:02:50.298Z,9.82
2022-08-05T23:05:22.214Z,10.48
2022-08-05T23:07:50.914Z,11.65
2022-08-05T23:10:20.885Z,9.10
2022-08-05T23:12:55.702Z,9.70
2022-08-05T23:15:27.071Z,10.98
2022-08-05T23:18:00.737Z,10.68
2022-08-05T23:20:30.956Z,12.15
2022-08-05T23:22:59.245Z,7.95
2022-08-05T23:25:52.524Z,7.55
2022-08-05T23:28:17.282Z,8.27
2022-08-05T23:30:53.124Z,9.52
2022-08-05T23:33:26.283Z,8.63
2022-08-05T23:36:10.534Z,6.55
2022-08-05T23:38:38.916Z,8.75
2022-08-05T23:41:07.134Z,9.38
2022-08-05T23:44:05.086Z,7.65
2022-08-05T23:46:27.324Z,7.80
2022-08-05T23:49:01.947Z,10.15
2022-08-05T23:52:01.612Z,7.45
2022-08-05T23:54:33.749Z,11.18
2022-08-05T23:57:05.238Z,11.90
